Stations météo

réclame
Mon MeteoGroup
Malaga,Cmt, Espagne (8481): Température de l'air & dewpoint: 15.10.2018 16:00:00 - 21.10.2018 16:00:00 (CEST)Malaga,Cmt, Espagne (8481): Vitesse du vent & gusts: 15.10.2018 16:00:00 - 21.10.2018 16:00:00 (CEST)Malaga,Cmt, Espagne (8481): Direction du vent: 15.10.2018 16:00:00 - 21.10.2018 16:00:00 (CEST)Malaga,Cmt, Espagne (8481): reduced air pressure: 15.10.2018 16:00:00 - 21.10.2018 16:00:00 (CEST)Malaga,Cmt, Espagne (8481): Quantités de précipitations: 15.10.2018 16:00:00 - 21.10.2018 16:00:00 (CEST)
Date & Time tt [°C] td [°C] ff [km/h] ff [knt] fx [km/h] fx [knt] dd ppp [hPa] rr [mm]
21.10.2018 16:00:00 21,3 14,4 16 9 29 15 W 1017,9 0,0
21.10.2018 15:00:00 20,9 14,5 19 11 29 15 W 1017,9 0,0
21.10.2018 14:00:00 20,9 15,3 17 9 27 15 W 1018,4 -
21.10.2018 13:00:00 21,6 15,4 14 8 27 15 W 1018,9 0,0
21.10.2018 12:00:00 22,9 16,6 11 6 20 11 W 1018,1 0,0
21.10.2018 11:00:00 20,9 17,1 11 6 20 11 W 1018,4 0,0
21.10.2018 10:00:00 19,2 17,7 11 6 17 9 W 1018,2 0,0
21.10.2018 09:00:00 17,9 16,6 11 6 16 9 W 1017,8 0,0
21.10.2018 08:00:00 17,7 16,4 9 5 17 9 W 1017,4 -
21.10.2018 07:00:00 18,0 16,6 7 4 16 8 W 1017,2 0,0
21.10.2018 06:00:00 18,8 17,5 10 5 16 8 W 1017,0 0,0
21.10.2018 05:00:00 20,3 19,3 4 2 12 7 N 1016,5 0,0
21.10.2018 04:00:00 20,2 19,2 5 3 9 5 E 1016,5 0,0
21.10.2018 03:00:00 20,1 19,1 5 3 12 7 SSE 1016,5 0,0
21.10.2018 02:00:00 20,4 19,4 8 4 14 8 SE 1016,7 -
21.10.2018 01:00:00 20,8 19,3 10 6 20 11 S 1016,4 0,0
21.10.2018 00:00:00 21,2 18,8 13 7 32 17 SSE 1016,9 0,0
20.10.2018 23:00:00 21,2 18,8 14 8 32 17 SE 1016,7 0,0
20.10.2018 22:00:00 21,0 18,5 15 8 25 13 SE 1015,7 0,0
20.10.2018 21:00:00 21,2 18,5 13 7 25 14 SE 1015,9 0,0
20.10.2018 20:00:00 21,3 18,3 5 3 18 10 SE 1015,5 -
20.10.2018 19:00:00 21,2 17,4 9 5 26 14 SSE 1014,7 0,0
20.10.2018 18:00:00 22,0 17,1 9 5 23 12 S 1014,4 0,0
20.10.2018 17:00:00 20,9 16,7 7 4 24 13 SSE 1014,1 0,0
20.10.2018 16:00:00 20,5 15,1 15 8 27 15 ESE 1014,2 0,0
20.10.2018 15:00:00 22,0 15,8 12 6 19 10 SSE 1014,5 0,0
20.10.2018 14:00:00 21,3 15,2 4 2 14 7 SE 1015,0 -
20.10.2018 13:00:00 18,6 16,2 3 2 19 10 WNW 1016,0 0,0
20.10.2018 12:00:00 16,6 15,6 10 6 18 10 W 1016,3 0,0
20.10.2018 11:00:00 16,0 15,1 4 2 10 5 NW 1016,3 0,3
20.10.2018 10:00:00 15,4 13,9 0 0 8 4 SE 1016,5 2,1
20.10.2018 09:00:00 15,2 13,8 5 3 10 6 W 1015,1 0,2
20.10.2018 08:00:00 14,8 12,8 5 3 12 6 W 1014,8 -
20.10.2018 07:00:00 15,1 12,2 6 3 11 6 WSW 1015,0 0,0
20.10.2018 06:00:00 15,9 11,7 6 3 14 8 N 1014,7 0,0
20.10.2018 05:00:00 14,8 12,6 7 4 12 6 NW 1015,3 0,0
20.10.2018 04:00:00 13,9 12,1 6 3 11 6 W 1015,3 0,0
20.10.2018 03:00:00 14,9 13,0 5 3 8 5 NNW 1015,5 0,0
20.10.2018 02:00:00 14,4 12,6 2 1 10 5 NNW 1015,6 -
20.10.2018 01:00:00 14,8 13,1 6 3 9 5 W 1015,3 0,0
20.10.2018 00:00:00 15,2 13,1 5 3 10 6 W 1015,4 0,0
19.10.2018 23:00:00 16,8 13,2 6 4 8 4 W 1015,3 0,0
19.10.2018 22:00:00 17,6 12,7 3 1 7 4 NNE 1014,8 0,0
19.10.2018 21:00:00 17,9 12,5 4 2 14 8 E 1014,4 0,0
19.10.2018 20:00:00 - - - - - - - - -
19.10.2018 19:00:00 19,0 13,7 12 7 27 15 SE 1012,9 0,0
19.10.2018 18:00:00 19,2 13,2 14 7 27 14 ESE 1012,7 0,0
19.10.2018 17:00:00 19,5 12,7 14 7 24 13 ESE 1012,4 0,0
19.10.2018 16:00:00 18,8 12,7 10 5 32 17 E 1012,4 0,0
19.10.2018 15:00:00 18,2 13,9 16 9 38 21 ESE 1012,8 0,0
19.10.2018 14:00:00 19,4 9,6 16 9 28 15 ESE 1012,8 -
19.10.2018 13:00:00 20,6 9,6 5 3 19 11 SE 1012,5 0,0
19.10.2018 12:00:00 18,9 11,9 9 5 16 9 WSW 1012,8 -
19.10.2018 11:00:00 15,8 12,7 8 5 14 7 W 1013,3 -
19.10.2018 10:00:00 12,8 11,0 9 5 18 10 WNW 1012,8 -
19.10.2018 09:00:00 12,0 10,5 8 4 12 7 W 1012,5 0,2
19.10.2018 08:00:00 12,5 10,8 6 3 14 7 W 1011,9 -
19.10.2018 07:00:00 12,1 10,6 8 5 14 7 WNW 1012,0 1,2
19.10.2018 06:00:00 12,1 10,9 7 4 12 7 NW 1011,6 1,3
19.10.2018 05:00:00 12,4 11,1 6 3 10 5 W 1011,7 1,2
19.10.2018 04:00:00 12,8 11,6 5 3 11 6 WNW 1011,7 1,2
19.10.2018 03:00:00 12,9 12,0 5 3 10 6 WNW 1012,1 1,3
19.10.2018 02:00:00 13,1 12,1 5 3 14 7 WNW 1012,1 -
19.10.2018 01:00:00 13,5 12,5 7 4 15 8 WNW 1012,1 1,3
19.10.2018 00:00:00 13,5 12,2 5 3 11 6 WNW 1012,2 1,3
18.10.2018 23:00:00 13,9 12,1 7 4 9 5 W 1012,5 1,2
18.10.2018 22:00:00 14,6 12,3 2 1 6 4 W 1012,2 1,3
18.10.2018 21:00:00 14,6 12,3 4 2 7 4 NE 1011,8 1,3
18.10.2018 20:00:00 14,5 12,2 4 2 10 6 ENE 1010,9 -
18.10.2018 19:00:00 15,5 12,1 1 0 23 12 SE 1010,4 1,4
18.10.2018 18:00:00 17,8 10,2 10 6 18 10 SE 1009,9 1,4
18.10.2018 17:00:00 19,4 10,9 11 6 18 10 SSE 1009,4 0,9
18.10.2018 16:00:00 18,4 11,7 5 3 11 6 SE 1009,0 0,6
18.10.2018 15:00:00 16,7 13,8 2 1 13 7 WSW 1009,6 0,7
18.10.2018 14:00:00 15,7 13,9 4 2 11 6 E 1009,9 -
18.10.2018 13:00:00 14,5 13,6 4 2 30 16 W 1010,5 0,5
18.10.2018 12:00:00 14,0 13,3 10 6 25 13 NNE 1009,3 1,2
18.10.2018 11:00:00 14,3 13,6 12 6 45 24 NW 1010,2 0,9
18.10.2018 10:00:00 17,0 16,2 4 2 8 4 ENE 1007,5 1,0
18.10.2018 09:00:00 17,0 16,2 8 4 14 8 ENE 1007,7 2,3
18.10.2018 08:00:00 17,2 16,2 3 2 21 12 NE 1008,4 -
18.10.2018 07:00:00 19,0 17,7 11 6 23 12 E 1008,7 0,5
18.10.2018 06:00:00 19,5 17,6 7 4 19 10 E 1009,4 0,0
18.10.2018 05:00:00 19,5 17,6 13 7 20 11 E 1010,0 0,0
18.10.2018 04:00:00 18,9 15,8 5 3 10 5 SE 1010,8 0,0
18.10.2018 03:00:00 19,2 16,2 5 3 9 5 E 1011,6 0,0
18.10.2018 02:00:00 19,0 15,7 1 0 4 2 N 1012,7 -
18.10.2018 01:00:00 19,1 15,5 0 0 4 2 N 1013,3 0,0
18.10.2018 00:00:00 19,5 15,2 4 2 6 3 W 1013,9 0,0
17.10.2018 23:00:00 19,8 14,8 3 2 9 5 ENE 1014,5 0,0
17.10.2018 22:00:00 19,7 14,7 4 2 13 7 ENE 1014,3 0,0
17.10.2018 21:00:00 20,0 15,0 8 4 16 9 E 1014,3 0,0
17.10.2018 20:00:00 20,1 15,7 10 6 22 12 E 1014,0 -
17.10.2018 19:00:00 20,7 16,6 11 6 23 12 E 1013,9 0,0
17.10.2018 18:00:00 21,3 16,5 14 8 24 13 ESE 1014,2 0,0
17.10.2018 17:00:00 22,1 16,4 14 8 25 13 ESE 1014,7 0,0
17.10.2018 16:00:00 22,8 16,4 13 7 23 12 ESE 1015,0 0,0
17.10.2018 15:00:00 23,6 15,9 15 8 23 13 SE 1015,6 0,0
17.10.2018 14:00:00 24,2 14,9 12 7 19 10 SE 1016,2 -
17.10.2018 13:00:00 25,6 15,0 10 5 17 9 S 1016,6 0,0
17.10.2018 12:00:00 23,7 14,1 6 4 16 9 W 1016,9 0,0
17.10.2018 11:00:00 21,9 14,8 11 6 17 9 W 1017,3 0,0
17.10.2018 10:00:00 18,4 14,9 4 2 10 5 NNW 1017,6 0,0
17.10.2018 09:00:00 16,4 14,6 4 2 11 6 NNW 1017,5 0,0
17.10.2018 08:00:00 16,1 14,6 4 2 14 8 NNW 1017,3 -
17.10.2018 07:00:00 16,4 15,3 8 5 18 10 WNW 1017,0 0,0
17.10.2018 06:00:00 16,2 15,3 5 3 11 6 NW 1016,9 0,0
17.10.2018 05:00:00 16,1 14,8 4 2 12 6 WNW 1016,9 0,0
17.10.2018 04:00:00 16,8 15,3 5 3 8 4 W 1017,1 0,0
17.10.2018 03:00:00 17,6 15,8 4 2 7 4 NW 1017,3 0,0
17.10.2018 02:00:00 18,1 16,2 3 1 6 4 NNW 1017,5 -
17.10.2018 01:00:00 18,2 16,0 4 2 8 4 WNW 1017,6 0,0
17.10.2018 00:00:00 19,0 15,9 2 1 6 3 N 1017,6 0,0
16.10.2018 23:00:00 19,2 16,0 4 2 9 5 NE 1017,4 0,0
16.10.2018 22:00:00 19,9 16,7 4 2 13 7 E 1016,6 0,0
16.10.2018 21:00:00 20,4 16,8 7 4 17 9 ESE 1016,2 0,0
16.10.2018 20:00:00 20,5 16,3 12 7 20 11 ESE 1015,6 -
16.10.2018 19:00:00 21,2 15,1 11 6 21 11 ESE 1014,7 0,0
16.10.2018 18:00:00 22,1 15,0 12 6 26 14 E 1014,3 0,0
16.10.2018 17:00:00 21,7 15,3 11 6 23 13 E 1013,8 0,0
16.10.2018 16:00:00 24,8 13,7 6 3 26 14 ESE 1012,9 0,0
16.10.2018 15:00:00 25,2 12,7 9 5 22 12 WNW 1012,7 0,0
16.10.2018 14:00:00 23,7 12,6 9 5 27 15 N 1013,2 -
16.10.2018 13:00:00 22,2 12,7 15 8 28 15 WNW 1013,2 0,0
16.10.2018 12:00:00 20,7 13,9 15 8 27 15 WNW 1013,3 0,0
16.10.2018 11:00:00 19,2 14,9 13 7 23 12 WNW 1013,1 0,0
16.10.2018 10:00:00 17,9 16,6 8 5 11 6 WSW 1012,9 0,0
16.10.2018 09:00:00 17,1 16,1 3 1 6 3 WSW 1012,4 0,0
16.10.2018 08:00:00 16,5 15,5 1 1 8 4 NNE 1012,0 -
16.10.2018 07:00:00 16,7 15,7 4 2 8 4 W 1011,6 0,0
16.10.2018 06:00:00 16,9 15,8 4 2 9 5 W 1011,4 0,1
16.10.2018 05:00:00 17,0 15,7 6 3 10 6 NW 1011,4 0,0
16.10.2018 04:00:00 17,3 16,1 6 3 9 5 WNW 1011,5 0,0
16.10.2018 03:00:00 17,5 16,4 4 2 7 4 W 1012,0 0,0
16.10.2018 02:00:00 17,6 16,3 4 2 8 4 W 1012,1 -
16.10.2018 01:00:00 17,7 16,6 1 1 13 7 WSW 1012,0 0,1
16.10.2018 00:00:00 17,3 16,1 9 5 17 9 NE 1012,3 0,2
15.10.2018 23:00:00 18,0 16,0 8 4 13 7 E 1012,2 0,1
15.10.2018 22:00:00 18,1 15,5 6 4 11 6 E 1012,6 0,3
15.10.2018 21:00:00 18,5 13,8 6 4 12 6 ESE 1012,5 0,1
15.10.2018 20:00:00 19,0 14,7 6 3 8 5 WSW 1012,7 -
15.10.2018 19:00:00 20,1 13,8 4 2 22 12 W 1012,3 0,3
15.10.2018 18:00:00 22,0 9,8 15 8 24 13 SSW 1011,8 0,0
15.10.2018 17:00:00 23,4 6,7 6 3 16 8 SSW 1011,2 0,0
15.10.2018 16:00:00 24,4 7,1 6 3 16 9 SW 1011,5 0,0

tt = Température de l'air
td = dewpoint
ff = Vitesse du vent
fx = gusts
dd = Direction du vent
ppp = reduced air pressure
rr = Quantités de précipitations

stations d'obs. à proximité